createdAt,value
2023-01-27T00:01:46.725Z,12.85
2023-01-27T00:04:17.027Z,12.80
2023-01-27T00:06:45.321Z,12.25
2023-01-27T00:09:13.696Z,12.45
2023-01-27T00:12:00.000Z,12.55
2023-01-27T00:14:28.587Z,12.82
2023-01-27T00:16:56.715Z,12.02
2023-01-27T00:19:27.487Z,11.63
2023-01-27T00:22:13.387Z,11.75
2023-01-27T00:24:42.462Z,11.10
2023-01-27T00:27:12.549Z,11.50
2023-01-27T00:29:42.058Z,11.32
2023-01-27T00:32:29.650Z,11.77
2023-01-27T00:34:59.687Z,11.48
2023-01-27T00:37:28.367Z,10.77
2023-01-27T00:39:56.850Z,11.50
2023-01-27T00:42:25.814Z,10.98
2023-01-27T00:45:11.850Z,11.02
2023-01-27T00:47:43.121Z,11.17
2023-01-27T00:50:15.713Z,11.10
2023-01-27T00:52:44.474Z,10.48
2023-01-27T00:55:16.506Z,11.30
2023-01-27T00:57:45.336Z,10.50
2023-01-27T01:00:16.056Z,10.98
2023-01-27T01:02:45.510Z,10.02
2023-01-27T01:05:16.269Z,11.17
2023-01-27T01:07:44.687Z,11.23
2023-01-27T01:10:14.034Z,11.13
2023-01-27T01:12:44.978Z,11.70
2023-01-27T01:15:17.666Z,12.20
2023-01-27T01:17:48.556Z,11.88
2023-01-27T01:20:19.785Z,11.45
2023-01-27T01:22:47.929Z,11.52
2023-01-27T01:25:18.481Z,11.73
2023-01-27T01:27:47.358Z,12.02
2023-01-27T01:30:16.582Z,12.13
2023-01-27T01:32:45.625Z,11.23
2023-01-27T01:35:14.454Z,11.43
2023-01-27T01:37:46.499Z,12.20
2023-01-27T01:40:15.618Z,11.88
2023-01-27T01:42:58.043Z,11.43
2023-01-27T01:45:53.450Z,11.70
2023-01-27T01:48:37.041Z,11.75
2023-01-27T01:51:14.280Z,11.48
2023-01-27T01:53:54.672Z,11.73
2023-01-27T01:56:30.716Z,12.32
2023-01-27T01:59:06.970Z,11.10
2023-01-27T02:01:36.472Z,11.43
2023-01-27T02:04:12.424Z,11.88
2023-01-27T02:06:54.414Z,11.90
2023-01-27T02:09:24.852Z,11.43
2023-01-27T02:11:54.687Z,11.70
2023-01-27T02:14:23.416Z,11.93
2023-01-27T02:16:52.176Z,11.20
2023-01-27T02:19:31.495Z,11.18
2023-01-27T02:22:04.957Z,10.55
2023-01-27T02:24:45.552Z,10.68
2023-01-27T02:27:15.563Z,11.05
2023-01-27T02:29:45.464Z,11.30
2023-01-27T02:32:24.656Z,11.27
2023-01-27T02:34:59.578Z,10.93
2023-01-27T02:37:30.338Z,10.75
2023-01-27T02:40:04.121Z,10.48
2023-01-27T02:42:35.581Z,10.85
2023-01-27T02:45:04.072Z,11.05
2023-01-27T02:47:32.360Z,11.38
2023-01-27T02:50:01.345Z,10.85
2023-01-27T02:52:29.738Z,11.90
2023-01-27T02:55:00.605Z,11.10
2023-01-27T02:57:29.232Z,11.32
2023-01-27T03:00:16.834Z,11.50
2023-01-27T03:02:45.227Z,11.20
2023-01-27T03:05:15.095Z,11.52
2023-01-27T03:07:44.168Z,11.40
2023-01-27T03:10:12.981Z,11.03
2023-01-27T03:12:41.643Z,10.93
2023-01-27T03:15:29.684Z,11.40
2023-01-27T03:18:14.062Z,11.20
2023-01-27T03:20:43.356Z,11.52
2023-01-27T03:23:12.601Z,11.85
2023-01-27T03:25:45.567Z,11.55
2023-01-27T03:28:16.371Z,12.13
2023-01-27T03:30:51.238Z,11.70
2023-01-27T03:33:26.692Z,11.52
2023-01-27T03:36:13.133Z,11.80
2023-01-27T03:39:06.654Z,11.60
2023-01-27T03:41:52.933Z,11.38
2023-01-27T03:44:41.102Z,11.40
2023-01-27T03:47:10.004Z,12.15
2023-01-27T03:49:39.613Z,11.02
2023-01-27T03:52:09.648Z,12.02
2023-01-27T03:54:38.582Z,11.57
2023-01-27T03:57:06.823Z,11.82
2023-01-27T03:59:36.394Z,11.43
2023-01-27T04:02:23.655Z,11.07
2023-01-27T04:05:11.769Z,11.93
2023-01-27T04:07:41.225Z,11.38
2023-01-27T04:10:11.218Z,11.88
2023-01-27T04:12:39.064Z,11.85
2023-01-27T04:15:09.751Z,11.52
2023-01-27T04:17:41.777Z,12.07
2023-01-27T04:20:13.434Z,11.50
2023-01-27T04:22:42.453Z,10.93
2023-01-27T04:25:13.038Z,11.17
2023-01-27T04:27:43.427Z,11.32
2023-01-27T04:30:13.591Z,12.05
2023-01-27T04:32:42.159Z,11.35
2023-01-27T04:35:14.711Z,12.45
2023-01-27T04:37:43.544Z,11.45
2023-01-27T04:40:14.229Z,12.20
2023-01-27T04:42:42.459Z,11.27
2023-01-27T04:45:11.815Z,11.82
2023-01-27T04:47:41.437Z,12.45
2023-01-27T04:50:15.112Z,12.25
2023-01-27T04:52:45.159Z,12.10
2023-01-27T04:55:15.363Z,12.35
2023-01-27T04:57:43.836Z,11.73
2023-01-27T05:00:17.510Z,11.55
2023-01-27T05:02:46.768Z,11.95
2023-01-27T05:05:16.952Z,12.75
2023-01-27T05:07:45.161Z,12.23
2023-01-27T05:10:13.591Z,12.75
2023-01-27T05:12:44.032Z,13.18
2023-01-27T05:15:12.809Z,13.35
2023-01-27T05:17:41.599Z,12.80
2023-01-27T05:20:11.891Z,12.45
2023-01-27T05:22:43.341Z,12.63
2023-01-27T05:25:12.155Z,11.68
2023-01-27T05:27:41.248Z,12.77
2023-01-27T05:30:11.975Z,12.20
2023-01-27T05:32:40.287Z,12.23
2023-01-27T05:35:11.051Z,13.80
2023-01-27T05:37:41.229Z,13.30
2023-01-27T05:40:12.481Z,11.93
2023-01-27T05:42:40.761Z,11.65
2023-01-27T05:45:11.431Z,12.30
2023-01-27T05:47:40.135Z,11.87
2023-01-27T05:50:10.264Z,11.57
2023-01-27T05:52:38.736Z,11.45
2023-01-27T05:55:09.678Z,12.32
2023-01-27T05:57:38.226Z,12.40
2023-01-27T06:00:08.405Z,12.05
2023-01-27T06:02:36.704Z,12.05
2023-01-27T06:05:05.497Z,12.43
2023-01-27T06:07:36.582Z,12.65
2023-01-27T06:10:05.914Z,11.50
2023-01-27T06:12:35.529Z,11.98
2023-01-27T06:15:04.222Z,13.17
2023-01-27T06:17:32.608Z,12.68
2023-01-27T06:20:01.606Z,12.50
2023-01-27T06:22:29.888Z,12.77
2023-01-27T06:24:59.453Z,14.18
2023-01-27T06:27:27.673Z,13.70
2023-01-27T06:29:58.165Z,12.80
2023-01-27T06:32:26.406Z,12.90
2023-01-27T06:34:54.598Z,12.75
2023-01-27T06:37:22.875Z,11.95
2023-01-27T06:39:51.028Z,12.75
2023-01-27T06:42:19.205Z,12.65
2023-01-27T06:44:47.773Z,12.77
2023-01-27T06:47:18.739Z,12.50
2023-01-27T06:49:46.957Z,12.85
2023-01-27T06:52:16.032Z,12.35
2023-01-27T06:54:44.348Z,12.50
2023-01-27T06:57:12.811Z,12.60
2023-01-27T06:59:41.036Z,12.35
2023-01-27T07:02:15.432Z,12.95
2023-01-27T07:04:47.587Z,12.40
2023-01-27T07:07:15.817Z,12.18
2023-01-27T07:09:52.289Z,12.32
2023-01-27T07:12:22.282Z,12.65
2023-01-27T07:14:50.430Z,12.07
2023-01-27T07:17:21.887Z,11.40
2023-01-27T07:19:52.053Z,13.25
2023-01-27T07:22:22.312Z,12.18
2023-01-27T07:24:50.511Z,12.65
2023-01-27T07:27:18.737Z,11.27
2023-01-27T07:29:47.373Z,11.77
2023-01-27T07:32:15.770Z,10.18
2023-01-27T07:34:44.150Z,10.70
2023-01-27T07:37:15.018Z,10.68
2023-01-27T07:39:44.146Z,12.35
2023-01-27T07:42:14.381Z,11.38
2023-01-27T07:44:44.962Z,12.38
2023-01-27T07:47:13.271Z,10.00
2023-01-27T07:49:41.695Z,8.60
2023-01-27T07:52:10.217Z,8.60
2023-01-27T07:54:40.033Z,7.95
2023-01-27T07:57:12.606Z,6.80
2023-01-27T07:59:40.898Z,7.20
2023-01-27T08:02:12.296Z,6.45
2023-01-27T08:04:52.568Z,6.30
2023-01-27T08:07:23.304Z,7.10
2023-01-27T08:09:54.639Z,5.80
2023-01-27T08:12:24.579Z,6.00
2023-01-27T08:14:53.417Z,6.13
2023-01-27T08:17:22.007Z,5.53
2023-01-27T08:19:52.104Z,6.25
2023-01-27T08:22:22.059Z,6.65
2023-01-27T08:24:52.967Z,6.25
2023-01-27T08:27:21.279Z,6.60
2023-01-27T08:29:50.510Z,7.13
2023-01-27T08:32:18.791Z,8.98
2023-01-27T08:34:47.620Z,10.50
2023-01-27T08:37:16.751Z,7.50
2023-01-27T08:39:44.957Z,6.20
2023-01-27T08:42:14.910Z,10.07
2023-01-27T08:44:43.661Z,5.97
2023-01-27T08:47:11.952Z,6.45
2023-01-27T08:49:41.824Z,7.97
2023-01-27T08:52:12.086Z,6.65
2023-01-27T08:54:40.420Z,7.10
2023-01-27T08:57:08.647Z,8.17
2023-01-27T08:59:38.295Z,7.20
2023-01-27T09:02:08.931Z,6.90
2023-01-27T09:04:42.327Z,7.68
2023-01-27T09:07:11.054Z,6.70
2023-01-27T09:09:40.294Z,7.07
2023-01-27T09:12:11.706Z,7.45
2023-01-27T09:14:42.235Z,8.10
2023-01-27T09:17:10.448Z,7.65
2023-01-27T09:19:39.457Z,7.75
2023-01-27T09:22:08.267Z,9.45
2023-01-27T09:24:36.764Z,8.85
2023-01-27T09:27:05.606Z,7.78
2023-01-27T09:29:34.494Z,7.82
2023-01-27T09:32:04.724Z,8.15
2023-01-27T09:34:33.873Z,8.00
2023-01-27T09:37:09.044Z,7.53
2023-01-27T09:39:43.907Z,7.72
2023-01-27T09:42:43.641Z,8.32
2023-01-27T09:45:46.260Z,8.37
2023-01-27T09:48:34.610Z,7.90
2023-01-27T09:51:14.702Z,8.23
2023-01-27T09:54:13.895Z,7.85
2023-01-27T09:56:59.649Z,8.93
2023-01-27T09:59:55.019Z,8.20
2023-01-27T10:02:46.570Z,8.20
2023-01-27T10:05:40.802Z,7.72
2023-01-27T10:08:55.697Z,8.00
2023-01-27T10:11:37.919Z,7.95
2023-01-27T10:14:23.830Z,7.80
2023-01-27T10:17:18.438Z,7.90
2023-01-27T10:20:15.804Z,9.55
2023-01-27T10:22:59.632Z,14.77
2023-01-27T10:25:47.499Z,8.60
2023-01-27T10:28:22.574Z,7.57
2023-01-27T10:31:00.974Z,8.50
2023-01-27T10:33:47.537Z,8.02
2023-01-27T10:36:28.352Z,7.57
2023-01-27T10:39:14.050Z,9.18
2023-01-27T10:42:00.184Z,9.40
2023-01-27T10:45:05.171Z,7.82
2023-01-27T10:47:57.203Z,8.00
2023-01-27T10:50:35.680Z,8.07
2023-01-27T10:53:14.805Z,7.88
2023-01-27T10:55:58.758Z,7.95
2023-01-27T10:58:46.020Z,8.00
2023-01-27T11:01:21.918Z,8.40
2023-01-27T11:03:58.463Z,8.20
2023-01-27T11:06:34.419Z,7.80
2023-01-27T11:09:13.192Z,7.47
2023-01-27T11:11:46.699Z,7.22
2023-01-27T11:14:28.018Z,7.87
2023-01-27T11:17:13.543Z,8.23
2023-01-27T11:19:54.609Z,6.53
2023-01-27T11:22:32.043Z,7.03
2023-01-27T11:25:09.025Z,7.25
2023-01-27T11:28:05.268Z,8.20
2023-01-27T11:30:44.562Z,7.47
2023-01-27T11:33:25.834Z,7.03
2023-01-27T11:35:55.668Z,7.60
2023-01-27T11:38:24.574Z,7.10
2023-01-27T11:40:55.211Z,7.22
2023-01-27T11:43:30.767Z,7.93
2023-01-27T11:46:06.233Z,7.50
2023-01-27T11:48:43.744Z,19.23
2023-01-27T11:51:22.054Z,7.57
2023-01-27T11:54:01.306Z,9.50
2023-01-27T11:56:31.243Z,9.25
2023-01-27T11:59:09.611Z,7.38
2023-01-27T12:01:50.668Z,11.27
2023-01-27T12:04:25.789Z,7.97
2023-01-27T12:07:00.610Z,7.63
2023-01-27T12:09:35.705Z,9.73
2023-01-27T12:12:23.898Z,8.43
2023-01-27T12:14:55.890Z,8.38
2023-01-27T12:17:33.798Z,8.23
2023-01-27T12:20:10.664Z,8.20
2023-01-27T12:22:48.370Z,8.43
2023-01-27T12:25:28.501Z,8.57
2023-01-27T12:28:02.487Z,7.65
2023-01-27T12:30:39.442Z,7.60
2023-01-27T12:33:21.979Z,7.97
2023-01-27T12:35:52.033Z,11.25
2023-01-27T12:38:27.038Z,7.72
2023-01-27T12:41:02.684Z,9.88
2023-01-27T12:43:31.488Z,8.70
2023-01-27T12:46:28.074Z,7.85
2023-01-27T12:49:10.144Z,13.38
2023-01-27T12:51:45.036Z,6.68
2023-01-27T12:54:24.653Z,6.72
2023-01-27T12:56:55.823Z,7.10
2023-01-27T12:59:28.523Z,7.03
2023-01-27T13:02:06.326Z,17.15
2023-01-27T13:04:37.340Z,7.18
2023-01-27T13:07:15.206Z,6.70
2023-01-27T13:09:56.688Z,6.47
2023-01-27T13:12:29.098Z,6.38
2023-01-27T13:15:00.845Z,6.32
2023-01-27T13:17:42.661Z,6.70
2023-01-27T13:20:22.361Z,6.40
2023-01-27T13:22:57.477Z,5.20
2023-01-27T13:25:37.965Z,5.97
2023-01-27T13:28:12.555Z,6.25
2023-01-27T13:30:48.520Z,5.63
2023-01-27T13:33:37.839Z,5.90
2023-01-27T13:36:13.597Z,5.95
2023-01-27T13:38:52.807Z,5.65
2023-01-27T13:41:31.360Z,5.53
2023-01-27T13:44:12.974Z,5.13
2023-01-27T13:46:45.052Z,6.38
2023-01-27T13:49:32.412Z,5.35
2023-01-27T13:52:00.717Z,4.63
2023-01-27T13:54:30.408Z,4.97
2023-01-27T13:57:21.539Z,4.70
2023-01-27T14:00:08.562Z,4.80
2023-01-27T14:03:37.009Z,4.78
2023-01-27T14:06:34.836Z,4.90
2023-01-27T14:09:20.775Z,6.05
2023-01-27T14:12:00.748Z,8.48
2023-01-27T14:15:03.321Z,5.50
2023-01-27T14:17:47.881Z,4.68
2023-01-27T14:20:42.275Z,6.00
2023-01-27T14:23:34.214Z,6.13
2023-01-27T14:26:21.704Z,4.80
2023-01-27T14:29:11.383Z,4.23
2023-01-27T14:31:57.581Z,4.70
2023-01-27T14:34:44.288Z,4.23
2023-01-27T14:37:25.838Z,4.93
2023-01-27T14:40:16.993Z,4.88
2023-01-27T14:43:07.361Z,4.35
2023-01-27T14:45:39.685Z,4.68
2023-01-27T14:48:31.042Z,5.50
2023-01-27T14:51:21.178Z,4.78
2023-01-27T14:54:12.111Z,4.78
2023-01-27T14:57:01.924Z,4.93
2023-01-27T14:59:44.825Z,4.33
2023-01-27T15:02:34.950Z,5.00
2023-01-27T15:05:16.557Z,4.70
2023-01-27T15:07:58.283Z,5.32
2023-01-27T15:10:29.521Z,5.80
2023-01-27T15:13:44.840Z,5.50
2023-01-27T15:16:46.876Z,4.72
2023-01-27T15:20:00.165Z,6.95
2023-01-27T15:22:53.904Z,4.20
2023-01-27T15:25:36.485Z,4.55
2023-01-27T15:28:05.790Z,4.47
2023-01-27T15:30:39.017Z,4.73
2023-01-27T15:33:49.830Z,5.00
2023-01-27T15:36:31.404Z,6.07
2023-01-27T15:39:03.718Z,5.43
2023-01-27T15:41:32.986Z,5.35
2023-01-27T15:44:15.802Z,5.05
2023-01-27T15:46:48.973Z,5.00
2023-01-27T15:49:23.813Z,5.93
2023-01-27T15:51:57.559Z,5.40
2023-01-27T15:54:32.643Z,5.47
2023-01-27T15:57:06.888Z,5.68
2023-01-27T15:59:58.904Z,6.13
2023-01-27T16:02:32.440Z,5.78
2023-01-27T16:05:17.431Z,5.20
2023-01-27T16:07:53.481Z,4.97
2023-01-27T16:10:25.683Z,4.75
2023-01-27T16:13:23.178Z,4.70
2023-01-27T16:16:23.593Z,6.22
2023-01-27T16:19:02.370Z,5.70
2023-01-27T16:21:45.160Z,5.03
2023-01-27T16:24:26.279Z,4.88
2023-01-27T16:27:07.297Z,5.45
2023-01-27T16:29:45.220Z,7.03
2023-01-27T16:32:19.213Z,5.30
2023-01-27T16:34:53.539Z,5.30
2023-01-27T16:37:29.309Z,5.60
2023-01-27T16:40:06.757Z,5.07
2023-01-27T16:42:39.212Z,5.90
2023-01-27T16:45:21.445Z,5.53
2023-01-27T16:47:54.236Z,5.60
2023-01-27T16:50:38.174Z,5.77
2023-01-27T16:53:14.103Z,6.63
2023-01-27T16:55:43.248Z,6.33
2023-01-27T16:58:24.384Z,5.43
2023-01-27T17:00:55.647Z,5.40
2023-01-27T17:03:35.659Z,5.20
2023-01-27T17:06:10.821Z,5.40
2023-01-27T17:08:46.234Z,5.47
2023-01-27T17:11:26.789Z,5.53
2023-01-27T17:14:01.509Z,5.70
2023-01-27T17:16:35.605Z,5.63
2023-01-27T17:19:12.535Z,5.72
2023-01-27T17:21:47.559Z,5.35
2023-01-27T17:24:21.363Z,5.30
2023-01-27T17:26:59.567Z,5.22
2023-01-27T17:29:37.013Z,5.67
2023-01-27T17:32:22.741Z,5.90
2023-01-27T17:34:54.927Z,5.70
2023-01-27T17:37:26.453Z,5.93
2023-01-27T17:39:59.140Z,6.85
2023-01-27T17:42:33.025Z,6.97
2023-01-27T17:45:24.622Z,5.93
2023-01-27T17:47:56.509Z,7.13
2023-01-27T17:50:31.541Z,8.07
2023-01-27T17:53:02.124Z,7.43
2023-01-27T17:55:33.183Z,6.32
2023-01-27T17:58:07.841Z,6.25
2023-01-27T18:00:40.979Z,7.57
2023-01-27T18:03:18.320Z,5.60
2023-01-27T18:05:49.055Z,5.95
2023-01-27T18:08:19.878Z,6.50
2023-01-27T18:10:48.618Z,6.05
2023-01-27T18:13:38.381Z,5.22
2023-01-27T18:16:16.697Z,6.50
2023-01-27T18:18:45.746Z,7.50
2023-01-27T18:21:19.479Z,7.72
2023-01-27T18:23:53.142Z,7.90
2023-01-27T18:26:25.750Z,8.20
2023-01-27T18:29:00.505Z,8.15
2023-01-27T18:31:35.128Z,8.67
2023-01-27T18:34:25.323Z,9.07
2023-01-27T18:36:59.669Z,6.38
2023-01-27T18:39:37.416Z,5.47
2023-01-27T18:42:16.050Z,5.93
2023-01-27T18:44:45.030Z,5.70
2023-01-27T18:47:34.614Z,5.70
2023-01-27T18:50:19.508Z,5.43
2023-01-27T18:52:50.373Z,5.10
2023-01-27T18:55:23.909Z,6.72
2023-01-27T18:57:55.957Z,6.60
2023-01-27T19:00:27.683Z,6.38
2023-01-27T19:03:01.673Z,6.10
2023-01-27T19:05:34.190Z,6.25
2023-01-27T19:08:05.113Z,6.20
2023-01-27T19:10:36.387Z,5.68
2023-01-27T19:13:05.903Z,5.85
2023-01-27T19:15:38.863Z,5.70
2023-01-27T19:18:17.526Z,6.57
2023-01-27T19:20:45.811Z,5.82
2023-01-27T19:23:17.453Z,5.35
2023-01-27T19:25:50.559Z,4.80
2023-01-27T19:28:27.574Z,5.00
2023-01-27T19:30:55.855Z,5.00
2023-01-27T19:33:26.769Z,5.13
2023-01-27T19:35:58.762Z,5.13
2023-01-27T19:38:31.073Z,4.60
2023-01-27T19:41:01.199Z,4.27
2023-01-27T19:43:29.365Z,4.93
2023-01-27T19:45:58.164Z,4.53
2023-01-27T19:48:26.605Z,4.75
2023-01-27T19:50:55.171Z,5.07
2023-01-27T19:53:23.539Z,5.20
2023-01-27T19:55:54.637Z,6.30
2023-01-27T19:58:27.789Z,5.72
2023-01-27T20:00:57.876Z,6.20
2023-01-27T20:03:26.248Z,6.30
2023-01-27T20:05:54.469Z,6.25
2023-01-27T20:08:23.219Z,5.60
2023-01-27T20:10:52.369Z,6.43
2023-01-27T20:13:22.959Z,6.45
2023-01-27T20:15:52.765Z,5.63
2023-01-27T20:18:22.898Z,5.57
2023-01-27T20:20:52.371Z,5.97
2023-01-27T20:23:20.521Z,5.65
2023-01-27T20:25:48.778Z,5.72
2023-01-27T20:28:17.928Z,5.65
2023-01-27T20:30:46.086Z,5.90
2023-01-27T20:33:17.178Z,6.57
2023-01-27T20:35:45.380Z,5.88
2023-01-27T20:38:13.516Z,5.55
2023-01-27T20:40:42.024Z,5.07
2023-01-27T20:43:10.211Z,5.25
2023-01-27T20:45:40.480Z,6.40
2023-01-27T20:48:11.803Z,6.47
2023-01-27T20:50:42.971Z,6.10
2023-01-27T20:53:11.419Z,6.10
2023-01-27T20:55:40.272Z,5.80
2023-01-27T20:58:08.720Z,5.97
2023-01-27T21:00:37.365Z,5.03
2023-01-27T21:03:05.782Z,4.85
2023-01-27T21:05:34.386Z,4.68
2023-01-27T21:08:04.149Z,4.50
2023-01-27T21:10:32.455Z,4.95
2023-01-27T21:13:01.008Z,5.40
2023-01-27T21:15:29.352Z,4.95
2023-01-27T21:17:57.798Z,5.15
2023-01-27T21:20:26.319Z,5.03
2023-01-27T21:22:54.435Z,4.90
2023-01-27T21:25:24.317Z,4.80
2023-01-27T21:27:52.596Z,5.00
2023-01-27T21:30:20.971Z,4.43
2023-01-27T21:32:49.679Z,4.60
2023-01-27T21:35:17.800Z,4.32
2023-01-27T21:37:45.890Z,4.40
2023-01-27T21:40:15.128Z,3.90
2023-01-27T21:43:02.436Z,3.83
2023-01-27T21:45:30.543Z,4.07
2023-01-27T21:47:59.209Z,4.07
2023-01-27T21:50:27.567Z,3.80
2023-01-27T21:52:55.893Z,3.70
2023-01-27T21:55:30.762Z,4.07
2023-01-27T21:58:00.606Z,4.25
2023-01-27T22:00:30.247Z,3.83
2023-01-27T22:03:00.648Z,4.10
2023-01-27T22:05:31.498Z,3.28
2023-01-27T22:08:02.045Z,3.10
2023-01-27T22:10:31.839Z,3.28
2023-01-27T22:13:04.698Z,3.05
2023-01-27T22:15:33.831Z,2.80
2023-01-27T22:18:02.129Z,2.78
2023-01-27T22:20:30.296Z,2.60
2023-01-27T22:22:58.429Z,3.03
2023-01-27T22:25:29.703Z,3.00
2023-01-27T22:27:58.043Z,3.08
2023-01-27T22:30:27.952Z,2.80
2023-01-27T22:32:56.441Z,2.92
2023-01-27T22:35:25.247Z,3.00
2023-01-27T22:37:56.304Z,3.33
2023-01-27T22:40:27.639Z,3.15
2023-01-27T22:42:55.831Z,3.22
2023-01-27T22:45:25.402Z,3.10
2023-01-27T22:47:55.274Z,3.25
2023-01-27T22:50:24.622Z,3.10
2023-01-27T22:52:52.836Z,3.53
2023-01-27T22:55:22.435Z,3.15
2023-01-27T22:57:50.873Z,3.33
2023-01-27T23:00:19.542Z,2.70
2023-01-27T23:02:47.699Z,2.80
2023-01-27T23:05:17.877Z,2.78
2023-01-27T23:07:47.904Z,2.40
2023-01-27T23:10:16.713Z,2.08
2023-01-27T23:12:44.871Z,2.33
2023-01-27T23:15:14.140Z,2.22
2023-01-27T23:17:42.524Z,2.15
2023-01-27T23:20:13.488Z,2.25
2023-01-27T23:22:43.030Z,2.28
2023-01-27T23:25:13.266Z,2.22
2023-01-27T23:27:42.585Z,2.53
2023-01-27T23:30:13.107Z,2.45
2023-01-27T23:32:41.274Z,2.70
2023-01-27T23:35:10.952Z,2.65
2023-01-27T23:37:39.123Z,2.60
2023-01-27T23:40:11.119Z,2.55
2023-01-27T23:42:40.118Z,2.90
2023-01-27T23:45:09.713Z,2.40
2023-01-27T23:47:38.074Z,2.50
2023-01-27T23:50:07.284Z,2.70
2023-01-27T23:52:35.626Z,2.80
2023-01-27T23:55:04.265Z,2.78
2023-01-27T23:57:34.309Z,3.35
